Time;durP1;ratioP1;P1;durP2;ratioP2;P2;SDS_P1;SDS_P2;PMS_P1;PMS_P2;Temp;Humidity;BMP_temperature;BMP_pressure;BME280_temperature;BME280_humidity;BME280_pressure;Samples;Min_cycle;Max_cycle;Signal;HPM_P1;HPM_P2
2023/03/27 00:01:00;;;;;;;4.47;3.45;;;;;;;;;;5053566;28;20048;-76
2023/03/27 00:03:29;;;;;;;5.57;3.22;;;;;;;;;;5053981;28;20136;-77
2023/03/27 00:06:04;;;;;;;6.53;3.30;;;;;;;;;;5054275;28;20594;-77
2023/03/27 00:08:31;;;;;;;5.05;3.28;;;;;;;;;;5053031;28;20143;-78
2023/03/27 00:10:59;;;;;;;3.65;3.25;;;;;;;;;;5053278;28;20076;-76
2023/03/27 00:13:27;;;;;;;3.92;3.15;;;;;;;;;;5054326;28;20049;-78
2023/03/27 00:15:55;;;;;;;4.47;3.15;;;;;;;;;;5052794;28;20041;-76
2023/03/27 00:18:23;;;;;;;3.20;3.00;;;;;;;;;;5054443;28;20103;-78
2023/03/27 00:20:51;;;;;;;2.83;2.50;;;;;;;;;;5053459;28;20578;-78
2023/03/27 00:23:21;;;;;;;4.15;2.78;;;;;;;;;;5054128;28;20131;-77
2023/03/27 00:25:49;;;;;;;4.95;3.40;;;;;;;;;;5054563;28;20145;-78
2023/03/27 00:28:19;;;;;;;4.13;2.65;;;;;;;;;;5053658;28;20082;-78
2023/03/27 00:30:47;;;;;;;2.53;2.42;;;;;;;;;;5052932;28;20076;-77
2023/03/27 00:33:15;;;;;;;3.83;2.63;;;;;;;;;;5052835;28;20096;-79
2023/03/27 00:35:47;;;;;;;4.05;2.58;;;;;;;;;;5052717;28;20045;-77
2023/03/27 00:38:15;;;;;;;2.70;2.53;;;;;;;;;;5054113;28;20056;-78
2023/03/27 00:40:45;;;;;;;4.15;2.55;;;;;;;;;;5053122;28;20136;-78
2023/03/27 00:43:32;;;;;;;5.78;2.90;;;;;;;;;;5052307;28;20163;-77
2023/03/27 00:46:26;;;;;;;4.70;3.03;;;;;;;;;;5052788;28;20507;-79
2023/03/27 00:48:54;;;;;;;;;;;;;;;;;;5052362;28;20507;-78
2023/03/27 00:51:22;;;;;;;5.43;3.63;;;;;;;;;;5053624;28;19920;-78
2023/03/27 00:53:50;;;;;;;7.45;3.67;;;;;;;;;;5052526;28;20119;-79
2023/03/27 00:56:18;;;;;;;7.95;4.32;;;;;;;;;;5053964;28;20132;-78
2023/03/27 00:58:47;;;;;;;6.07;4.07;;;;;;;;;;5052612;28;20075;-78
2023/03/27 01:01:15;;;;;;;10.65;4.15;;;;;;;;;;5053560;28;20055;-78
2023/03/27 01:03:45;;;;;;;12.07;4.80;;;;;;;;;;5053905;28;20059;-77
2023/03/27 01:06:13;;;;;;;13.70;5.03;;;;;;;;;;5053214;28;20063;-77
2023/03/27 01:08:42;;;;;;;12.38;4.47;;;;;;;;;;5052655;28;20057;-78
2023/03/27 01:11:28;;;;;;;13.90;5.38;;;;;;;;;;5053395;28;20051;-78
2023/03/27 01:13:58;;;;;;;17.52;5.50;;;;;;;;;;5052285;28;20076;-78
2023/03/27 01:16:31;;;;;;;11.52;5.22;;;;;;;;;;5051764;28;20045;-78
2023/03/27 01:18:58;;;;;;;;;;;;;;;;;;5053979;28;20053;-78
2023/03/27 01:21:26;;;;;;;15.32;5.85;;;;;;;;;;5052242;28;19927;-77
2023/03/27 01:23:57;;;;;;;9.10;6.00;;;;;;;;;;5052077;28;20427;-78
2023/03/27 01:26:42;;;;;;;12.65;6.68;;;;;;;;;;5052326;28;20139;-78
2023/03/27 01:29:21;;;;;;;17.80;6.10;;;;;;;;;;5052608;28;20045;-78
2023/03/27 01:32:11;;;;;;;13.77;6.85;;;;;;;;;;5052804;28;20124;-78
2023/03/27 01:34:41;;;;;;;12.50;6.32;;;;;;;;;;5053092;28;20045;-78
2023/03/27 01:37:29;;;;;;;13.75;6.40;;;;;;;;;;5051935;28;20045;-78
2023/03/27 01:40:03;;;;;;;18.02;8.25;;;;;;;;;;5053103;28;20055;-78
2023/03/27 01:42:45;;;;;;;15.05;7.07;;;;;;;;;;5052783;28;20512;-78
2023/03/27 01:45:18;;;;;;;17.42;7.88;;;;;;;;;;5051624;28;20511;-77
2023/03/27 01:47:52;;;;;;;12.68;7.97;;;;;;;;;;5052577;28;20427;-78
2023/03/27 01:50:28;;;;;;;19.48;8.02;;;;;;;;;;5051586;28;20470;-78
2023/03/27 01:53:00;;;;;;;13.95;8.07;;;;;;;;;;5051526;28;20045;-77
2023/03/27 01:55:30;;;;;;;15.45;8.82;;;;;;;;;;5051260;28;20099;-78
2023/03/27 01:58:02;;;;;;;14.60;8.52;;;;;;;;;;5051277;28;20045;-77
2023/03/27 02:00:29;;;;;;;13.73;7.93;;;;;;;;;;5052438;28;20144;-78
2023/03/27 02:03:22;;;;;;;17.17;8.00;;;;;;;;;;5051350;28;20049;-78
2023/03/27 02:05:55;;;;;;;14.82;7.45;;;;;;;;;;5051137;28;20124;-78
2023/03/27 02:08:38;;;;;;;20.10;7.88;;;;;;;;;;5051145;28;20052;-78
2023/03/27 02:11:05;;;;;;;12.23;7.53;;;;;;;;;;5051257;28;20419;-78
2023/03/27 02:13:43;;;;;;;16.95;9.75;;;;;;;;;;5052477;28;20294;-78
2023/03/27 02:16:13;;;;;;;18.95;8.82;;;;;;;;;;5050979;28;20499;-78
2023/03/27 02:18:46;;;;;;;23.90;8.70;;;;;;;;;;5051152;28;20132;-77
2023/03/27 02:21:14;;;;;;;13.60;8.05;;;;;;;;;;5052356;28;20053;-77
2023/03/27 02:23:43;;;;;;;28.65;10.55;;;;;;;;;;5052339;28;20419;-79
2023/03/27 02:26:11;;;;;;;22.15;8.68;;;;;;;;;;5052125;28;20073;-77
2023/03/27 02:28:39;;;;;;;25.50;9.32;;;;;;;;;;5052099;28;20499;-79
2023/03/27 02:31:25;;;;;;;12.57;7.22;;;;;;;;;;5052516;28;20478;-79
2023/03/27 02:34:06;;;;;;;11.52;7.07;;;;;;;;;;5051421;28;20072;-78
2023/03/27 02:36:48;;;;;;;10.98;5.82;;;;;;;;;;5052083;28;20076;-78
2023/03/27 02:39:18;;;;;;;12.68;6.10;;;;;;;;;;5051518;28;20049;-78
2023/03/27 02:41:50;;;;;;;15.95;6.97;;;;;;;;;;5055164;28;20509;-79
2023/03/27 02:44:25;;;;;;;17.48;6.72;;;;;;;;;;5056613;28;20481;-79
2023/03/27 02:46:52;;;;;;;15.38;6.38;;;;;;;;;;5056871;28;20048;-78
2023/03/27 02:49:22;;;;;;;15.10;5.43;;;;;;;;;;5056008;28;20045;-79
2023/03/27 02:51:52;;;;;;;14.05;5.65;;;;;;;;;;5056193;28;20045;-79
2023/03/27 02:54:23;;;;;;;10.55;5.07;;;;;;;;;;5054664;28;20044;-78
2023/03/27 02:56:53;;;;;;;12.77;4.50;;;;;;;;;;5056054;28;20049;-78
2023/03/27 02:59:30;;;;;;;11.02;4.60;;;;;;;;;;5054490;28;20140;-78
2023/03/27 03:01:57;;;;;;;13.48;4.40;;;;;;;;;;5054463;28;20055;-79
2023/03/27 03:04:27;;;;;;;9.30;4.63;;;;;;;;;;5054343;28;20052;-79
2023/03/27 03:06:55;;;;;;;9.38;4.78;;;;;;;;;;5055702;28;20071;-78
2023/03/27 03:09:23;;;;;;;11.35;3.95;;;;;;;;;;5054096;28;20573;-78
2023/03/27 03:11:54;;;;;;;8.73;3.88;;;;;;;;;;5055805;28;20131;-78
2023/03/27 03:14:23;;;;;;;10.63;4.65;;;;;;;;;;5054192;28;20049;-78
2023/03/27 03:16:50;;;;;;;10.40;4.63;;;;;;;;;;5054680;28;20052;-79
2023/03/27 03:19:18;;;;;;;11.52;3.90;;;;;;;;;;5055717;28;20504;-78
2023/03/27 03:21:45;;;;;;;10.32;4.15;;;;;;;;;;5054315;28;20473;-78
2023/03/27 03:24:13;;;;;;;10.77;3.70;;;;;;;;;;5054725;28;20079;-78
2023/03/27 03:26:40;;;;;;;9.13;4.05;;;;;;;;;;5055719;28;20049;-79
2023/03/27 03:29:08;;;;;;;12.90;3.60;;;;;;;;;;5054479;28;20055;-78
2023/03/27 03:31:43;;;;;;;9.48;4.55;;;;;;;;;;5055614;28;20076;-78
2023/03/27 03:34:15;;;;;;;10.18;4.20;;;;;;;;;;5054136;28;20073;-79
2023/03/27 03:36:47;;;;;;;9.88;4.45;;;;;;;;;;5056211;28;20045;-78
2023/03/27 03:39:15;;;;;;;16.10;4.53;;;;;;;;;;5054705;28;20075;-79
2023/03/27 03:41:42;;;;;;;12.82;4.90;;;;;;;;;;5056192;28;20499;-79
2023/03/27 03:44:10;;;;;;;18.65;5.35;;;;;;;;;;5055676;28;20059;-77
2023/03/27 03:46:37;;;;;;;8.82;5.40;;;;;;;;;;5054765;28;20415;-77
2023/03/27 03:49:05;;;;;;;13.20;6.07;;;;;;;;;;5053847;28;20512;-79
2023/03/27 03:51:33;;;;;;;18.80;5.63;;;;;;;;;;5053727;28;20414;-80
2023/03/27 03:54:00;;;;;;;12.93;5.03;;;;;;;;;;5053822;28;20488;-79
2023/03/27 03:56:29;;;;;;;14.00;5.20;;;;;;;;;;5054106;28;20059;-78
2023/03/27 03:58:56;;;;;;;16.85;5.93;;;;;;;;;;5055717;28;20055;-78
2023/03/27 04:01:24;;;;;;;18.27;5.95;;;;;;;;;;5054072;28;20464;-78
2023/03/27 04:03:52;;;;;;;14.40;5.55;;;;;;;;;;5053766;28;20057;-78
2023/03/27 04:06:20;;;;;;;13.57;5.18;;;;;;;;;;5053363;28;20414;-80
2023/03/27 04:08:47;;;;;;;11.60;4.70;;;;;;;;;;5055351;28;20045;-78
2023/03/27 04:11:14;;;;;;;15.27;5.47;;;;;;;;;;5054959;28;20049;-80
2023/03/27 04:13:42;;;;;;;20.73;5.30;;;;;;;;;;5055035;28;20055;-78
2023/03/27 04:16:09;;;;;;;26.63;5.32;;;;;;;;;;5054690;28;20076;-78
2023/03/27 04:18:39;;;;;;;16.33;5.43;;;;;;;;;;5054696;28;20587;-78
2023/03/27 04:21:13;;;;;;;9.52;4.50;;;;;;;;;;5054767;28;20415;-79
2023/03/27 04:23:41;;;;;;;23.23;5.95;;;;;;;;;;5054305;28;20045;-77
2023/03/27 04:26:10;;;;;;;17.63;5.70;;;;;;;;;;5053103;28;20045;-78
2023/03/27 04:28:39;;;;;;;15.45;4.45;;;;;;;;;;5053016;28;20045;-79
2023/03/27 04:31:07;;;;;;;10.85;4.78;;;;;;;;;;5052565;28;20470;-78
2023/03/27 04:33:38;;;;;;;10.57;4.43;;;;;;;;;;5052726;28;20055;-80
2023/03/27 04:36:06;;;;;;;17.20;4.55;;;;;;;;;;5057704;28;20056;-81
2023/03/27 04:38:38;;;;;;;22.15;5.35;;;;;;;;;;5058273;28;20470;-80
2023/03/27 04:41:05;;;;;;;15.55;4.75;;;;;;;;;;5057879;28;20045;-80
2023/03/27 04:43:35;;;;;;;15.05;4.65;;;;;;;;;;5057192;28;20393;-80
2023/03/27 04:46:05;;;;;;;14.40;4.57;;;;;;;;;;5057600;28;20092;-80
2023/03/27 04:48:33;;;;;;;12.07;4.35;;;;;;;;;;5057187;28;20041;-79
2023/03/27 04:51:00;;;;;;;12.52;4.30;;;;;;;;;;5056183;28;20128;-80
2023/03/27 04:53:29;;;;;;;20.30;4.55;;;;;;;;;;5057509;28;20049;-79
2023/03/27 04:55:56;;;;;;;10.05;4.13;;;;;;;;;;5055789;28;20045;-79
2023/03/27 04:58:27;;;;;;;13.85;4.78;;;;;;;;;;5055111;28;20167;-79
2023/03/27 05:00:54;;;;;;;9.65;4.35;;;;;;;;;;5056333;28;20091;-81
2023/03/27 05:03:23;;;;;;;7.88;4.43;;;;;;;;;;5053814;28;20055;-78
2023/03/27 05:05:50;;;;;;;12.77;4.68;;;;;;;;;;5053318;28;20045;-79
2023/03/27 05:08:17;;;;;;;7.78;4.43;;;;;;;;;;5053539;28;20151;-80
2023/03/27 05:10:45;;;;;;;24.42;6.53;;;;;;;;;;5054144;28;20045;-79
2023/03/27 05:13:12;;;;;;;11.40;5.63;;;;;;;;;;5055095;28;20060;-80
2023/03/27 05:15:40;;;;;;;15.48;6.68;;;;;;;;;;5054902;28;20049;-78
2023/03/27 05:18:07;;;;;;;18.17;7.10;;;;;;;;;;5052900;28;20144;-77
2023/03/27 05:20:35;;;;;;;19.42;8.63;;;;;;;;;;5054080;28;20496;-79
2023/03/27 05:23:02;;;;;;;14.95;7.65;;;;;;;;;;5052349;28;20057;-78
2023/03/27 05:25:30;;;;;;;9.45;7.72;;;;;;;;;;5052511;28;20055;-78
2023/03/27 05:27:59;;;;;;;16.73;8.50;;;;;;;;;;5054009;28;20091;-80
2023/03/27 05:30:26;;;;;;;57.40;12.65;;;;;;;;;;5053814;28;20122;-77
2023/03/27 05:32:56;;;;;;;156.23;19.58;;;;;;;;;;5053187;28;20131;-77
2023/03/27 05:35:25;;;;;;;24.40;9.68;;;;;;;;;;5053454;28;20637;-79
2023/03/27 05:37:52;;;;;;;27.00;10.73;;;;;;;;;;5052368;28;20056;-78
2023/03/27 05:40:21;;;;;;;18.83;9.82;;;;;;;;;;5053134;28;20434;-79
2023/03/27 05:42:50;;;;;;;15.68;8.77;;;;;;;;;;5053411;28;20099;-77
2023/03/27 05:45:17;;;;;;;29.30;10.07;;;;;;;;;;5053951;28;20393;-79
2023/03/27 05:47:46;;;;;;;16.60;8.25;;;;;;;;;;5052881;28;20103;-77
2023/03/27 05:50:13;;;;;;;15.63;8.27;;;;;;;;;;5053758;28;20049;-78
2023/03/27 05:52:41;;;;;;;15.43;7.68;;;;;;;;;;5053326;28;20532;-78
2023/03/27 05:55:09;;;;;;;16.48;8.63;;;;;;;;;;5051846;28;20083;-77
2023/03/27 05:57:37;;;;;;;17.13;8.77;;;;;;;;;;5052655;28;20136;-77
2023/03/27 06:00:10;;;;;;;23.27;9.57;;;;;;;;;;5051329;28;20140;-77
2023/03/27 06:02:42;;;;;;;15.52;7.72;;;;;;;;;;5051690;28;20053;-78
2023/03/27 06:05:14;;;;;;;10.60;7.70;;;;;;;;;;5052728;28;20049;-78
2023/03/27 06:07:41;;;;;;;10.45;6.65;;;;;;;;;;5051046;28;20419;-79
2023/03/27 06:10:10;;;;;;;11.65;5.45;;;;;;;;;;5054627;28;20053;-79
2023/03/27 06:12:40;;;;;;;10.10;4.80;;;;;;;;;;5055839;28;20418;-80
2023/03/27 06:15:08;;;;;;;12.57;4.82;;;;;;;;;;5055399;28;20071;-80
2023/03/27 06:17:37;;;;;;;12.70;4.53;;;;;;;;;;5056663;28;20051;-80
2023/03/27 06:20:13;;;;;;;7.72;3.72;;;;;;;;;;5055869;28;20056;-80
2023/03/27 06:22:42;;;;;;;6.20;3.63;;;;;;;;;;5055416;28;20452;-79
2023/03/27 06:25:09;;;;;;;5.82;3.00;;;;;;;;;;5054579;28;20084;-78
2023/03/27 06:27:36;;;;;;;4.57;3.08;;;;;;;;;;5053666;28;20052;-79
2023/03/27 06:30:04;;;;;;;6.20;3.05;;;;;;;;;;5053241;28;20049;-79
2023/03/27 06:32:31;;;;;;;13.85;4.13;;;;;;;;;;5052760;28;20045;-79
2023/03/27 06:34:59;;;;;;;7.82;3.70;;;;;;;;;;5052476;28;20126;-79
2023/03/27 06:37:26;;;;;;;6.22;2.70;;;;;;;;;;5053671;28;20055;-79
2023/03/27 06:39:53;;;;;;;6.38;2.85;;;;;;;;;;5053868;28;20188;-79
2023/03/27 06:42:21;;;;;;;8.93;2.70;;;;;;;;;;5051805;28;20048;-79
2023/03/27 06:44:48;;;;;;;7.88;2.80;;;;;;;;;;5053199;28;20496;-78
2023/03/27 06:47:15;;;;;;;4.47;1.98;;;;;;;;;;5052946;28;20053;-79
2023/03/27 06:49:46;;;;;;;12.70;2.50;;;;;;;;;;5051390;28;20045;-78
2023/03/27 06:52:14;;;;;;;11.73;2.75;;;;;;;;;;5051030;28;20106;-78
2023/03/27 06:54:41;;;;;;;19.13;3.30;;;;;;;;;;5050938;28;20081;-77
2023/03/27 06:57:08;;;;;;;8.15;2.13;;;;;;;;;;5050964;28;20073;-77
2023/03/27 06:59:36;;;;;;;5.50;1.58;;;;;;;;;;5052238;28;20079;-80
2023/03/27 07:02:03;;;;;;;4.53;1.20;;;;;;;;;;5050825;28;20089;-77
2023/03/27 07:04:32;;;;;;;3.45;1.20;;;;;;;;;;5052088;28;20519;-79
2023/03/27 07:06:59;;;;;;;3.35;1.23;;;;;;;;;;5051189;28;20081;-79
2023/03/27 07:09:26;;;;;;;9.73;2.15;;;;;;;;;;5050479;28;20048;-80
2023/03/27 07:11:54;;;;;;;12.57;1.73;;;;;;;;;;5050775;28;20061;-78
2023/03/27 07:14:22;;;;;;;5.65;1.75;;;;;;;;;;5051860;28;20063;-79
2023/03/27 07:16:49;;;;;;;4.70;1.13;;;;;;;;;;5051897;28;20048;-78
2023/03/27 07:19:17;;;;;;;4.65;1.30;;;;;;;;;;5053691;28;20503;-80
2023/03/27 07:21:44;;;;;;;5.15;1.10;;;;;;;;;;5053489;28;20049;-79
2023/03/27 07:24:12;;;;;;;5.60;1.10;;;;;;;;;;5052389;28;20045;-79
2023/03/27 07:26:39;;;;;;;10.15;1.33;;;;;;;;;;5056465;28;20414;-79
2023/03/27 07:29:09;;;;;;;17.63;1.35;;;;;;;;;;5055590;28;20455;-79
2023/03/27 07:31:37;;;;;;;12.23;1.10;;;;;;;;;;5056612;28;20059;-79
2023/03/27 07:34:08;;;;;;;4.85;1.17;;;;;;;;;;5054394;28;20044;-80
2023/03/27 07:36:35;;;;;;;4.20;0.90;;;;;;;;;;5055659;28;20064;-79
2023/03/27 07:39:02;;;;;;;31.95;3.75;;;;;;;;;;5055936;28;20080;-79
2023/03/27 07:41:29;;;;;;;4.47;1.30;;;;;;;;;;5054559;28;20087;-80
2023/03/27 07:43:57;;;;;;;8.13;1.30;;;;;;;;;;5054172;28;20063;-79
2023/03/27 07:46:25;;;;;;;2.42;0.98;;;;;;;;;;5055073;28;20096;-79
2023/03/27 07:48:52;;;;;;;5.57;1.13;;;;;;;;;;5054330;28;20549;-79
2023/03/27 07:51:19;;;;;;;6.72;1.60;;;;;;;;;;5053992;28;20136;-80
2023/03/27 07:53:48;;;;;;;3.70;0.95;;;;;;;;;;5054146;28;20053;-79
2023/03/27 07:56:15;;;;;;;2.40;0.88;;;;;;;;;;5054303;28;20127;-78
2023/03/27 07:58:42;;;;;;;2.17;1.13;;;;;;;;;;5054523;28;20094;-79
2023/03/27 08:01:10;;;;;;;5.57;0.98;;;;;;;;;;5054407;28;20076;-79
2023/03/27 08:03:37;;;;;;;14.82;2.35;;;;;;;;;;5055489;28;20092;-77
2023/03/27 08:06:06;;;;;;;35.47;4.63;;;;;;;;;;5054608;28;20136;-79
2023/03/27 08:08:33;;;;;;;8.68;1.15;;;;;;;;;;5053863;28;20053;-79
2023/03/27 08:11:01;;;;;;;7.88;1.23;;;;;;;;;;5053508;28;20419;-80
2023/03/27 08:13:29;;;;;;;10.00;1.30;;;;;;;;;;5054601;28;20504;-79
2023/03/27 08:16:07;;;;;;;3.97;1.05;;;;;;;;;;5053199;28;20101;-80
2023/03/27 08:18:35;;;;;;;3.70;1.02;;;;;;;;;;5054471;28;20132;-81
2023/03/27 08:21:04;;;;;;;5.57;1.27;;;;;;;;;;5053095;28;20053;-80
2023/03/27 08:23:32;;;;;;;5.05;1.20;;;;;;;;;;5054582;28;20049;-80
2023/03/27 08:26:00;;;;;;;4.88;1.05;;;;;;;;;;5053101;28;20049;-79
2023/03/27 08:28:28;;;;;;;5.18;0.88;;;;;;;;;;5054857;28;20081;-78
2023/03/27 08:30:56;;;;;;;9.10;1.10;;;;;;;;;;5053996;28;20055;-78
2023/03/27 08:33:29;;;;;;;7.60;1.30;;;;;;;;;;5054558;28;20075;-79
2023/03/27 08:35:56;;;;;;;7.45;1.35;;;;;;;;;;5052769;28;20071;-79
2023/03/27 08:38:23;;;;;;;4.28;1.08;;;;;;;;;;5052837;28;20471;-80
2023/03/27 08:40:57;;;;;;;4.82;1.13;;;;;;;;;;5053785;28;20586;-80
2023/03/27 08:43:26;;;;;;;7.78;1.10;;;;;;;;;;5052626;28;20064;-79
2023/03/27 08:46:03;;;;;;;4.20;1.27;;;;;;;;;;5052801;28;20555;-82
2023/03/27 08:48:33;;;;;;;7.63;1.20;;;;;;;;;;5054711;28;20140;-81
2023/03/27 08:51:04;;;;;;;1.85;0.60;;;;;;;;;;5054425;28;20052;-79
2023/03/27 08:53:39;;;;;;;5.30;1.17;;;;;;;;;;5053129;28;20049;-80
2023/03/27 08:56:12;;;;;;;5.93;0.82;;;;;;;;;;5053265;28;20062;-80
2023/03/27 08:58:40;;;;;;;6.25;1.35;;;;;;;;;;5054123;28;20136;-81
2023/03/27 09:01:28;;;;;;;3.50;0.98;;;;;;;;;;5054267;28;20049;-80
2023/03/27 09:04:06;;;;;;;6.57;1.05;;;;;;;;;;5054293;28;20055;-79
2023/03/27 09:06:48;;;;;;;8.75;1.25;;;;;;;;;;5053884;28;20092;-80
2023/03/27 09:09:54;;;;;;;5.47;2.13;;;;;;;;;;5053633;28;20460;-79
2023/03/27 09:12:22;;;;;;;7.45;1.50;;;;;;;;;;5011537;28;20045;-78
2023/03/27 09:14:55;;;;;;;3.50;1.30;;;;;;;;;;5011911;28;20061;-79
2023/03/27 09:17:28;;;;;;;4.50;1.00;;;;;;;;;;5034409;28;20091;-80
2023/03/27 09:19:57;;;;;;;8.07;1.80;;;;;;;;;;5053324;28;20045;-80
2023/03/27 09:22:26;;;;;;;5.63;1.73;;;;;;;;;;5052786;28;20056;-80
2023/03/27 09:24:55;;;;;;;9.88;1.40;;;;;;;;;;5054341;28;20056;-79
2023/03/27 09:27:33;;;;;;;4.75;1.02;;;;;;;;;;5056389;28;20139;-81
2023/03/27 09:30:10;;;;;;;16.33;2.03;;;;;;;;;;5055779;28;20401;-80
2023/03/27 09:32:38;;;;;;;5.45;1.27;;;;;;;;;;5056483;28;20131;-80
2023/03/27 09:35:05;;;;;;;10.02;1.33;;;;;;;;;;5056568;28;20045;-81
2023/03/27 09:37:33;;;;;;;2.03;0.70;;;;;;;;;;5054129;28;20072;-79
2023/03/27 09:40:06;;;;;;;14.57;1.42;;;;;;;;;;5054304;28;20053;-81
2023/03/27 09:42:36;;;;;;;34.50;4.03;;;;;;;;;;5051908;28;20545;-80
2023/03/27 09:45:05;;;;;;;5.43;0.88;;;;;;;;;;5052838;28;20148;-79
2023/03/27 09:47:37;;;;;;;3.17;1.10;;;;;;;;;;5051735;28;20298;-81
2023/03/27 09:50:24;;;;;;;3.63;0.93;;;;;;;;;;5052825;28;20083;-81
2023/03/27 09:53:09;;;;;;;2.65;0.70;;;;;;;;;;5051784;28;20474;-80
2023/03/27 09:55:45;;;;;;;5.45;1.13;;;;;;;;;;5053016;28;20045;-81
2023/03/27 09:58:15;;;;;;;4.55;1.05;;;;;;;;;;5051509;28;20048;-79
2023/03/27 10:00:42;;;;;;;2.15;0.57;;;;;;;;;;5053295;28;20095;-80
2023/03/27 10:03:17;;;;;;;2.55;0.73;;;;;;;;;;5053364;28;20080;-80
2023/03/27 10:05:45;;;;;;;1.52;0.70;;;;;;;;;;5051696;28;20132;-81
2023/03/27 10:08:32;;;;;;;4.05;0.98;;;;;;;;;;5052650;28;20049;-82
2023/03/27 10:11:00;;;;;;;4.05;0.98;;;;;;;;;;5050987;28;20067;-79
2023/03/27 10:13:29;;;;;;;2.75;0.80;;;;;;;;;;5052318;28;20415;-81
2023/03/27 10:15:58;;;;;;;8.82;1.80;;;;;;;;;;5051610;28;20147;-79
2023/03/27 10:18:30;;;;;;;16.25;1.80;;;;;;;;;;5052282;28;20044;-80
2023/03/27 10:20:58;;;;;;;6.15;0.95;;;;;;;;;;5051228;28;20049;-79
2023/03/27 10:23:27;;;;;;;5.25;1.02;;;;;;;;;;5051047;28;20057;-80
2023/03/27 10:25:59;;;;;;;7.35;1.20;;;;;;;;;;5052405;28;20056;-81
2023/03/27 10:28:27;;;;;;;7.05;1.05;;;;;;;;;;5052641;28;20140;-79
2023/03/27 10:31:02;;;;;;;3.55;1.25;;;;;;;;;;5052409;28;20389;-80
2023/03/27 10:33:30;;;;;;;2.65;0.70;;;;;;;;;;5052429;28;20056;-80
2023/03/27 10:35:58;;;;;;;2.97;0.98;;;;;;;;;;5051257;28;20040;-79
2023/03/27 10:38:26;;;;;;;2.58;0.70;;;;;;;;;;5051432;28;20475;-79
2023/03/27 10:40:55;;;;;;;5.35;1.05;;;;;;;;;;5051472;28;20056;-80
2023/03/27 10:43:32;;;;;;;3.28;0.80;;;;;;;;;;5052341;28;20469;-82
2023/03/27 10:46:03;;;;;;;3.97;1.05;;;;;;;;;;5051914;28;20140;-81
2023/03/27 10:48:37;;;;;;;4.00;1.02;;;;;;;;;;5050959;28;20045;-81
2023/03/27 10:51:06;;;;;;;9.70;1.13;;;;;;;;;;5050797;28;20141;-80
2023/03/27 10:53:50;;;;;;;2.97;0.70;;;;;;;;;;5050745;28;20430;-81
2023/03/27 10:56:35;;;;;;;8.07;1.27;;;;;;;;;;5052175;28;20041;-79
2023/03/27 10:59:15;;;;;;;6.82;1.73;;;;;;;;;;5050685;28;20084;-79
2023/03/27 11:01:45;;;;;;;6.57;1.80;;;;;;;;;;5053601;28;20045;-81
2023/03/27 11:04:24;;;;;;;7.15;0.95;;;;;;;;;;5055254;28;20427;-81
2023/03/27 11:06:56;;;;;;;3.53;0.85;;;;;;;;;;5055696;28;20064;-82
2023/03/27 11:09:26;;;;;;;4.03;0.93;;;;;;;;;;5054333;28;20393;-80
2023/03/27 11:12:06;;;;;;;2.95;0.82;;;;;;;;;;5056137;28;20044;-84
2023/03/27 11:15:00;;;;;;;2.25;0.90;;;;;;;;;;5054769;28;20045;-80
2023/03/27 11:17:31;;;;;;;2.53;1.05;;;;;;;;;;5051872;28;20131;-79
2023/03/27 11:20:07;;;;;;;4.18;0.63;;;;;;;;;;5054299;28;20049;-80
2023/03/27 11:22:38;;;;;;;4.60;1.15;;;;;;;;;;5055611;28;20063;-79
2023/03/27 11:25:21;;;;;;;6.90;1.10;;;;;;;;;;5055301;28;20132;-79
2023/03/27 11:28:01;;;;;;;6.35;0.90;;;;;;;;;;5056650;28;20507;-80
2023/03/27 11:30:33;;;;;;;3.50;1.02;;;;;;;;;;5055256;28;20489;-81
2023/03/27 11:33:06;;;;;;;3.72;0.80;;;;;;;;;;5055566;28;20048;-83
2023/03/27 11:35:37;;;;;;;2.65;0.70;;;;;;;;;;5057068;28;20500;-80
2023/03/27 11:38:07;;;;;;;2.22;0.73;;;;;;;;;;5054375;28;20102;-81
2023/03/27 11:40:38;;;;;;;3.70;0.98;;;;;;;;;;5054682;28;20272;-82
2023/03/27 11:43:08;;;;;;;4.68;0.75;;;;;;;;;;5054327;28;20083;-81
2023/03/27 11:45:54;;;;;;;3.47;0.60;;;;;;;;;;5053665;28;20045;-80
2023/03/27 11:48:21;;;;;;;3.30;0.88;;;;;;;;;;5053659;28;20045;-80
2023/03/27 11:50:52;;;;;;;6.60;1.00;;;;;;;;;;5053615;28;20051;-79
2023/03/27 11:53:45;;;;;;;4.55;1.05;;;;;;;;;;5055536;28;20128;-80
2023/03/27 11:56:32;;;;;;;3.55;0.90;;;;;;;;;;5056452;28;20081;-81
2023/03/27 11:59:03;;;;;;;6.05;1.05;;;;;;;;;;5050860;28;20045;-81
2023/03/27 12:01:37;;;;;;;5.18;1.00;;;;;;;;;;5049708;28;20051;-82
2023/03/27 12:04:12;;;;;;;3.75;0.95;;;;;;;;;;5055127;28;20102;-81
2023/03/27 12:06:54;;;;;;;7.45;1.35;;;;;;;;;;5053563;28;20530;-80
2023/03/27 12:09:50;;;;;;;10.00;3.03;;;;;;;;;;5047733;28;20124;-79
2023/03/27 12:12:17;;;;;;;2.92;0.65;;;;;;;;;;5033211;28;20046;-80
2023/03/27 12:14:50;;;;;;;4.38;0.80;;;;;;;;;;5034757;28;20128;-80
2023/03/27 12:17:27;;;;;;;5.82;1.20;;;;;;;;;;5033600;28;20578;-82
2023/03/27 12:20:14;;;;;;;2.97;1.17;;;;;;;;;;5044023;28;20045;-81
2023/03/27 12:23:00;;;;;;;3.13;0.63;;;;;;;;;;5055050;28;20486;-81
2023/03/27 12:25:49;;;;;;;3.33;1.02;;;;;;;;;;5053395;28;20071;-79
2023/03/27 12:28:28;;;;;;;6.10;0.98;;;;;;;;;;5053095;28;20434;-80
2023/03/27 12:31:01;;;;;;;6.80;1.15;;;;;;;;;;5053128;28;20045;-83
2023/03/27 12:33:28;;;;;;;4.15;1.10;;;;;;;;;;5054853;28;20128;-81
2023/03/27 12:35:58;;;;;;;5.60;1.20;;;;;;;;;;5054765;28;20099;-80
2023/03/27 12:38:30;;;;;;;3.20;0.95;;;;;;;;;;5054309;28;20041;-81
2023/03/27 12:41:16;;;;;;;2.63;1.25;;;;;;;;;;5052987;28;20099;-81
2023/03/27 12:43:45;;;;;;;3.88;1.25;;;;;;;;;;5053651;28;20055;-80
2023/03/27 12:46:13;;;;;;;5.00;0.88;;;;;;;;;;5054597;28;20466;-81
2023/03/27 12:48:46;;;;;;;7.97;1.10;;;;;;;;;;5053542;28;20045;-80
2023/03/27 12:51:18;;;;;;;1.42;1.10;;;;;;;;;;5053161;28;20053;-79
2023/03/27 12:53:47;;;;;;;4.07;1.27;;;;;;;;;;5052890;28;20048;-81
2023/03/27 12:56:17;;;;;;;9.77;1.23;;;;;;;;;;5052726;28;20503;-81
2023/03/27 12:58:45;;;;;;;4.25;1.20;;;;;;;;;;5052715;28;20052;-81
2023/03/27 13:01:20;;;;;;;21.88;2.03;;;;;;;;;;5053319;28;20053;-81
2023/03/27 13:04:06;;;;;;;4.97;1.08;;;;;;;;;;5052377;28;20045;-81
2023/03/27 13:06:55;;;;;;;7.70;1.48;;;;;;;;;;5054140;28;20049;-81
2023/03/27 13:09:27;;;;;;;3.90;1.38;;;;;;;;;;5052677;28;20052;-80
2023/03/27 13:11:56;;;;;;;1.95;0.80;;;;;;;;;;5052658;28;20056;-81
2023/03/27 13:14:26;;;;;;;5.70;0.95;;;;;;;;;;5051943;28;20162;-81
2023/03/27 13:17:00;;;;;;;6.20;1.23;;;;;;;;;;5053920;28;20041;-83
2023/03/27 13:19:31;;;;;;;19.55;0.90;;;;;;;;;;5054162;28;20124;-83
2023/03/27 13:22:12;;;;;;;10.60;1.38;;;;;;;;;;5052665;28;20056;-80
2023/03/27 13:24:58;;;;;;;1.95;0.50;;;;;;;;;;5052936;28;20048;-79
2023/03/27 13:27:31;;;;;;;3.15;0.73;;;;;;;;;;5052638;28;20055;-80
2023/03/27 13:29:59;;;;;;;2.30;0.68;;;;;;;;;;5053268;28;20056;-80
2023/03/27 13:32:32;;;;;;;7.93;0.77;;;;;;;;;;5052453;28;20049;-81
2023/03/27 13:35:03;;;;;;;4.93;1.00;;;;;;;;;;5037125;28;20168;-80
2023/03/27 13:37:30;;;;;;;5.82;1.08;;;;;;;;;;5031886;28;20049;-80
2023/03/27 13:40:25;;;;;;;6.65;1.00;;;;;;;;;;5031746;28;20124;-81
2023/03/27 13:43:01;;;;;;;2.63;0.43;;;;;;;;;;5032995;28;20132;-81
2023/03/27 13:45:35;;;;;;;3.00;0.90;;;;;;;;;;5032769;28;20053;-80
2023/03/27 13:48:08;;;;;;;4.32;0.80;;;;;;;;;;5031966;28;20060;-80
2023/03/27 13:50:54;;;;;;;1.00;0.52;;;;;;;;;;5032260;28;20054;-80
2023/03/27 13:53:35;;;;;;;5.65;1.80;;;;;;;;;;5032935;28;20041;-81
2023/03/27 13:56:19;;;;;;;1.50;0.70;;;;;;;;;;5032493;28;20497;-79
2023/03/27 13:59:05;;;;;;;3.40;0.70;;;;;;;;;;5031709;28;20088;-81
2023/03/27 14:01:33;;;;;;;1.90;0.70;;;;;;;;;;5032711;28;20095;-82
2023/03/27 14:04:07;;;;;;;1.92;0.70;;;;;;;;;;5031373;28;20495;-80
2023/03/27 14:06:52;;;;;;;3.20;0.90;;;;;;;;;;5031740;28;20059;-81
2023/03/27 14:09:32;;;;;;;1.65;0.50;;;;;;;;;;5032513;28;20088;-82
2023/03/27 14:12:18;;;;;;;1.95;0.65;;;;;;;;;;5030845;28;20055;-79
2023/03/27 14:15:03;;;;;;;6.43;0.80;;;;;;;;;;5032319;28;20095;-80
2023/03/27 14:17:46;;;;;;;4.15;0.80;;;;;;;;;;5031755;28;20081;-80
2023/03/27 14:20:18;;;;;;;0.90;0.70;;;;;;;;;;5031243;28;20041;-79
2023/03/27 14:22:52;;;;;;;2.47;0.52;;;;;;;;;;5030977;28;20136;-81
2023/03/27 14:25:29;;;;;;;0.57;0.50;;;;;;;;;;5031692;28;20090;-81
2023/03/27 14:27:57;;;;;;;3.95;0.73;;;;;;;;;;5032031;28;20115;-81
2023/03/27 14:30:25;;;;;;;3.95;0.80;;;;;;;;;;5033432;28;20080;-80
2023/03/27 14:32:54;;;;;;;3.45;0.57;;;;;;;;;;5031734;28;20045;-81
2023/03/27 14:35:27;;;;;;;1.38;0.50;;;;;;;;;;5034919;28;20519;-80
2023/03/27 14:37:59;;;;;;;1.92;0.73;;;;;;;;;;5036246;28;20054;-81
2023/03/27 14:40:31;;;;;;;1.60;0.63;;;;;;;;;;5035946;28;20045;-79
2023/03/27 14:42:59;;;;;;;1.88;0.45;;;;;;;;;;5036448;28;20131;-81
2023/03/27 14:45:31;;;;;;;3.60;0.57;;;;;;;;;;5037134;28;20057;-83
2023/03/27 14:48:05;;;;;;;2.83;0.73;;;;;;;;;;5036566;28;20052;-80
2023/03/27 14:50:37;;;;;;;4.65;0.82;;;;;;;;;;5037692;28;20401;-82
2023/03/27 14:53:09;;;;;;;1.40;0.68;;;;;;;;;;5035543;28;20077;-81
2023/03/27 14:55:38;;;;;;;1.45;0.50;;;;;;;;;;5035960;28;20397;-81
2023/03/27 14:58:10;;;;;;;7.63;0.95;;;;;;;;;;5035508;28;20145;-78
2023/03/27 15:00:39;;;;;;;1.58;0.57;;;;;;;;;;5036185;28;20049;-79
2023/03/27 15:03:15;;;;;;;2.92;0.40;;;;;;;;;;5035055;28;20053;-78
2023/03/27 15:06:01;;;;;;;2.75;0.60;;;;;;;;;;5035214;28;20072;-80